Time;durP1;ratioP1;P1;durP2;ratioP2;P2;SDS_P1;SDS_P2;PMS_P1;PMS_P2;Temp;Humidity;BMP_temperature;BMP_pressure;BME280_temperature;BME280_humidity;BME280_pressure;Samples;Min_cycle;Max_cycle;Signal;HPM_P1;HPM_P2
2022/07/25 00:03:18;;;;;;;3.50;2.40;;;;;;;19.85;50.06;99281.48;238728;1192;138645;-59
2022/07/25 00:08:21;;;;;;;5.50;2.40;;;;;;;19.76;50.26;99285.06;238878;1191;138420;-59
2022/07/25 00:13:24;;;;;;;6.90;2.50;;;;;;;19.67;50.37;99280.00;238642;1192;138727;-58
2022/07/25 00:18:27;;;;;;;5.10;2.20;;;;;;;19.59;50.66;99279.80;238720;1192;138442;-59
2022/07/25 00:23:30;;;;;;;4.40;2.30;;;;;;;19.54;50.86;99277.42;238842;1192;138892;-59
2022/07/25 00:28:33;;;;;;;3.90;2.20;;;;;;;19.49;51.09;99273.98;238822;1192;138453;-58
2022/07/25 00:33:36;;;;;;;4.60;2.40;;;;;;;19.44;51.17;99271.38;238798;1191;138575;-59
2022/07/25 00:38:39;;;;;;;5.40;2.50;;;;;;;19.35;51.30;99267.13;238907;1191;138402;-59
2022/07/25 00:43:45;;;;;;;3.00;2.20;;;;;;;19.30;51.39;99268.02;238777;1191;139179;-58
2022/07/25 00:48:48;;;;;;;6.50;2.30;;;;;;;19.21;51.43;99270.86;238450;1192;138382;-58
2022/07/25 00:53:51;;;;;;;4.90;2.20;;;;;;;19.14;51.48;99265.58;238715;1192;141597;-58
2022/07/25 00:58:54;;;;;;;3.50;2.00;;;;;;;19.04;51.56;99263.26;238749;1192;139030;-58
2022/07/25 01:03:57;;;;;;;6.90;2.40;;;;;;;18.96;51.87;99265.85;238769;1192;138644;-58
2022/07/25 01:09:00;;;;;;;3.70;2.10;;;;;;;18.90;52.13;99259.35;238687;1192;139006;-58
2022/07/25 01:14:04;;;;;;;4.50;2.20;;;;;;;18.85;52.19;99253.94;238814;1190;139525;-58
2022/07/25 01:19:07;;;;;;;6.40;2.30;;;;;;;18.78;52.21;99252.91;238716;1191;138987;-56
2022/07/25 01:24:12;;;;;;;4.10;2.30;;;;;;;18.70;52.11;99249.20;238669;1191;138639;-59
2022/07/25 01:29:14;;;;;;;5.30;2.30;;;;;;;18.65;52.33;99247.25;238815;1191;138536;-59
2022/07/25 01:34:18;;;;;;;4.90;2.30;;;;;;;18.61;52.49;99244.77;238840;1192;138920;-59
2022/07/25 01:39:21;;;;;;;6.30;2.20;;;;;;;18.54;52.61;99246.09;238812;1192;138666;-57
2022/07/25 01:44:24;;;;;;;5.40;2.10;;;;;;;18.49;52.74;99247.98;238880;1192;138599;-59
2022/07/25 01:49:27;;;;;;;4.50;2.10;;;;;;;18.46;52.89;99241.09;238838;1191;138702;-58
2022/07/25 01:54:31;;;;;;;5.00;2.30;;;;;;;18.41;53.02;99240.15;238784;1192;138768;-58
2022/07/25 01:59:39;;;;;;;4.00;2.10;;;;;;;18.34;52.96;99245.39;238926;1191;139366;-58
2022/07/25 02:04:41;;;;;;;4.40;2.10;;;;;;;18.28;53.00;99247.59;238656;1190;139264;-57
2022/07/25 02:09:44;;;;;;;3.40;2.10;;;;;;;18.23;53.30;99245.90;238784;1190;138511;-58
2022/07/25 02:14:47;;;;;;;4.10;2.10;;;;;;;18.16;53.19;99243.63;238802;1190;138890;-58
2022/07/25 02:19:50;;;;;;;3.30;1.90;;;;;;;18.11;53.44;99238.91;238479;1192;138894;-58
2022/07/25 02:24:53;;;;;;;3.80;1.80;;;;;;;18.05;53.59;99240.16;238728;1192;139574;-58
2022/07/25 02:29:57;;;;;;;4.10;2.10;;;;;;;17.99;53.72;99239.81;238535;1192;138741;-58
2022/07/25 02:35:00;;;;;;;6.20;2.00;;;;;;;17.94;53.86;99239.70;238389;1191;138852;-58
2022/07/25 02:40:04;;;;;;;5.70;2.10;;;;;;;17.91;53.83;99238.85;238582;1191;139165;-58
2022/07/25 02:45:07;;;;;;;7.20;2.40;;;;;;;17.88;53.96;99238.61;238392;1192;139153;-59
2022/07/25 02:50:10;;;;;;;5.50;2.50;;;;;;;17.85;53.88;99236.42;238400;1192;138659;-57
2022/07/25 02:55:16;;;;;;;8.30;2.10;;;;;;;17.81;53.89;99237.81;238702;1192;138698;-58
2022/07/25 03:00:19;;;;;;;3.80;2.10;;;;;;;17.75;54.07;99233.31;238468;1192;138586;-58
2022/07/25 03:05:22;;;;;;;5.70;2.30;;;;;;;17.71;54.09;99241.34;238531;1192;139281;-59
2022/07/25 03:10:25;;;;;;;7.30;2.30;;;;;;;17.67;54.25;99238.48;238342;1193;139147;-59
2022/07/25 03:15:28;;;;;;;6.20;2.40;;;;;;;17.62;54.22;99234.56;238372;1192;139665;-59
2022/07/25 03:20:31;;;;;;;5.10;2.10;;;;;;;17.58;54.19;99242.28;238753;1192;138692;-58
2022/07/25 03:25:34;;;;;;;4.10;2.20;;;;;;;17.55;54.37;99246.52;238664;1192;139277;-58
2022/07/25 03:30:37;;;;;;;6.80;2.10;;;;;;;17.61;54.71;99256.98;238721;1192;139121;-58
2022/07/25 03:35:40;;;;;;;6.80;2.60;;;;;;;17.67;54.51;99260.71;238989;1191;139030;-59
2022/07/25 03:40:43;;;;;;;4.30;2.50;;;;;;;17.73;54.74;99258.20;238951;1190;139085;-57
2022/07/25 03:45:46;;;;;;;4.60;2.60;;;;;;;17.81;54.58;99258.82;238654;1192;138865;-57
2022/07/25 03:50:49;;;;;;;5.70;2.30;;;;;;;17.86;54.58;99254.42;238708;1192;138287;-59
2022/07/25 03:55:52;;;;;;;5.30;2.40;;;;;;;17.88;54.54;99255.31;238883;1190;138751;-59
2022/07/25 04:00:55;;;;;;;4.40;2.50;;;;;;;17.90;54.64;99253.84;238735;1192;139077;-58
2022/07/25 04:06:00;;;;;;;5.80;2.30;;;;;;;17.95;54.75;99253.23;238728;1191;138978;-58
2022/07/25 04:11:03;;;;;;;5.10;2.40;;;;;;;18.01;54.79;99248.45;238850;1190;138521;-58
2022/07/25 04:16:06;;;;;;;3.60;2.30;;;;;;;18.08;54.97;99241.67;238030;1192;139018;-57
2022/07/25 04:21:16;;;;;;;3.90;2.00;;;;;;;18.16;54.84;99244.30;238499;1192;138982;-59
2022/07/25 04:26:19;;;;;;;4.60;2.20;;;;;;;18.24;55.07;99236.83;238748;1191;138978;-58
2022/07/25 04:31:23;;;;;;;3.00;2.20;;;;;;;18.31;55.02;99238.52;238595;1191;139554;-57
2022/07/25 04:36:27;;;;;;;4.00;2.40;;;;;;;18.38;55.04;99229.05;238619;1192;139373;-58
2022/07/25 04:41:30;;;;;;;3.10;2.60;;;;;;;18.49;54.96;99220.20;238581;1192;138682;-58
2022/07/25 04:46:33;;;;;;;5.20;2.40;;;;;;;18.61;54.94;99222.60;238455;1192;139266;-55
2022/07/25 04:51:36;;;;;;;6.30;3.80;;;;;;;18.74;54.78;99217.52;238695;1192;139292;-55
2022/07/25 04:56:39;;;;;;;4.30;2.80;;;;;;;18.87;54.88;99217.90;238875;1191;139045;-58
2022/07/25 05:01:42;;;;;;;4.10;2.60;;;;;;;19.00;54.83;99211.98;238821;1190;138966;-59
2022/07/25 05:06:45;;;;;;;4.20;2.50;;;;;;;19.13;54.88;99211.37;238536;1191;139002;-58
2022/07/25 05:11:48;;;;;;;5.50;2.80;;;;;;;19.23;54.85;99205.32;238708;1190;138713;-59
2022/07/25 05:16:58;;;;;;;6.10;3.50;;;;;;;19.33;54.75;99213.56;238937;1191;138591;-60
2022/07/25 05:22:02;;;;;;;4.60;3.00;;;;;;;19.50;55.30;99207.64;238676;1192;138602;-59
2022/07/25 05:27:05;;;;;;;4.00;2.80;;;;;;;20.26;56.53;99198.16;238579;1191;139465;-58
2022/07/25 05:32:08;;;;;;;5.40;2.70;;;;;;;20.94;56.14;99194.10;238745;1192;138759;-59
2022/07/25 05:37:11;;;;;;;10.50;5.10;;;;;;;21.65;55.36;99190.13;238397;1191;139028;-58
2022/07/25 05:42:14;;;;;;;14.50;7.10;;;;;;;21.76;53.50;99190.23;238745;1192;138713;-59
2022/07/25 05:47:16;;;;;;;10.70;5.30;;;;;;;21.71;53.00;99188.55;238925;1190;139581;-59
2022/07/25 05:52:19;;;;;;;12.50;6.60;;;;;;;22.03;53.70;99186.83;238757;1191;139504;-58
2022/07/25 05:57:22;;;;;;;10.70;5.70;;;;;;;22.47;53.27;99179.63;238837;1191;139611;-59
2022/07/25 06:02:25;;;;;;;8.40;4.70;;;;;;;22.81;52.68;99183.86;238756;1191;140970;-59
2022/07/25 06:07:29;;;;;;;12.90;6.30;;;;;;;22.98;52.08;99182.82;238835;1191;139970;-59
2022/07/25 06:12:32;;;;;;;10.10;5.60;;;;;;;22.95;50.89;99180.58;238307;1190;139291;-59
2022/07/25 06:17:38;;;;;;;10.60;5.30;;;;;;;22.73;50.42;99182.27;239001;1192;139440;-59
2022/07/25 06:22:41;;;;;;;11.60;4.60;;;;;;;22.68;50.92;99180.33;238644;1191;138857;-59
2022/07/25 06:27:44;;;;;;;21.50;5.10;;;;;;;22.98;51.43;99179.20;238641;1191;139279;-58
2022/07/25 06:32:48;;;;;;;13.40;5.00;;;;;;;23.17;51.15;99174.73;238796;1190;139579;-59
2022/07/25 06:37:51;;;;;;;12.40;4.90;;;;;;;23.46;51.11;99172.72;238830;1191;139231;-58
2022/07/25 06:42:54;;;;;;;18.20;5.60;;;;;;;23.63;50.37;99164.61;238777;1191;139595;-58
2022/07/25 06:47:57;;;;;;;9.70;4.70;;;;;;;23.58;49.66;99156.40;238649;1191;141890;-59
2022/07/25 06:53:01;;;;;;;14.60;4.50;;;;;;;23.51;49.44;99147.42;238965;1190;139743;-59
2022/07/25 06:58:04;;;;;;;10.60;4.40;;;;;;;23.37;48.99;99141.41;238541;1191;138998;-59
2022/07/25 07:03:07;;;;;;;12.50;4.60;;;;;;;23.23;48.95;99138.29;238756;1191;139634;-59
2022/07/25 07:08:10;;;;;;;13.00;4.10;;;;;;;23.25;49.54;99127.93;238631;1190;139084;-58
2022/07/25 07:13:16;;;;;;;11.40;4.20;;;;;;;23.53;49.88;99123.13;238802;1190;139146;-58
2022/07/25 07:18:25;;;;;;;9.60;4.10;;;;;;;23.82;49.68;99116.69;238674;1191;140865;-59
2022/07/25 07:23:28;;;;;;;15.30;4.90;;;;;;;23.95;49.19;99107.48;238919;1191;139516;-60
2022/07/25 07:28:34;;;;;;;7.50;3.70;;;;;;;24.10;49.06;99108.60;238799;1191;140010;-59
2022/07/25 07:33:37;;;;;;;13.30;5.00;;;;;;;24.26;48.88;99109.95;238357;1191;139519;-57
2022/07/25 07:38:40;;;;;;;17.60;5.20;;;;;;;24.37;48.51;99110.48;238800;1191;139447;-59
2022/07/25 07:43:44;;;;;;;9.70;4.50;;;;;;;24.41;48.21;99109.79;238631;1191;139434;-59
2022/07/25 07:48:47;;;;;;;18.60;5.70;;;;;;;24.51;48.06;99108.09;238125;1192;140056;-58
2022/07/25 07:59:14;;;;;;;14.50;5.70;;;;;;;24.66;47.69;99106.63;238440;1192;139338;-59
2022/07/25 08:04:17;;;;;;;16.60;6.00;;;;;;;24.73;47.55;99105.10;238772;1192;139587;-59
2022/07/25 08:09:20;;;;;;;16.30;5.20;;;;;;;24.83;47.43;99103.20;238792;1191;139498;-59
2022/07/25 08:14:23;;;;;;;10.20;3.80;;;;;;;24.90;47.11;99101.86;238811;1191;138951;-60
2022/07/25 08:19:26;;;;;;;10.00;3.70;;;;;;;24.94;46.95;99100.04;238876;1191;138865;-58
2022/07/25 08:24:29;;;;;;;11.90;4.00;;;;;;;25.00;46.64;99096.05;238848;1191;139685;-59
2022/07/25 08:29:32;;;;;;;7.60;3.40;;;;;;;25.07;46.52;99099.31;238843;1191;139307;-58
2022/07/25 08:34:35;;;;;;;5.30;2.90;;;;;;;25.12;46.24;99100.72;238827;1191;138743;-58
2022/07/25 08:39:40;;;;;;;3.90;1.90;;;;;;;25.17;45.72;99098.11;238839;1191;138895;-59
2022/07/25 08:44:52;;;;;;;5.40;2.60;;;;;;;25.22;44.91;99093.31;238829;1192;138893;-59
2022/07/25 08:49:55;;;;;;;4.10;1.80;;;;;;;25.25;44.70;99083.55;238784;1191;139066;-59
2022/07/25 08:55:09;;;;;;;6.60;2.20;;;;;;;25.26;44.23;99075.95;238729;1191;138310;-59
2022/07/25 09:00:16;;;;;;;3.40;1.90;;;;;;;25.33;44.26;99074.93;238785;1191;140244;-59
2022/07/25 09:05:23;;;;;;;4.20;1.70;;;;;;;25.42;43.80;99077.70;238844;1192;140095;-59
2022/07/25 09:10:27;;;;;;;3.60;1.50;;;;;;;25.51;43.05;99070.19;238843;1190;139514;-59
2022/07/25 09:15:35;;;;;;;4.60;1.70;;;;;;;25.62;43.02;99069.86;238689;1191;138485;-59
2022/07/25 09:20:58;;;;;;;6.40;1.80;;;;;;;25.73;42.60;99070.40;238672;1192;139525;-59
2022/07/25 09:26:06;;;;;;;4.70;1.80;;;;;;;25.82;42.44;99061.81;238588;1192;138640;-59
2022/07/25 09:31:09;;;;;;;8.50;2.60;;;;;;;25.90;41.89;99054.40;238739;1191;138688;-59
2022/07/25 09:36:13;;;;;;;7.20;2.20;;;;;;;26.04;41.78;99051.52;238429;1191;139393;-57
2022/07/25 09:41:16;;;;;;;6.00;2.50;;;;;;;26.20;41.49;99051.30;238740;1192;139654;-57
2022/07/25 09:46:29;;;;;;;3.10;2.00;;;;;;;26.31;41.25;99049.60;238788;1192;139541;-59
2022/07/25 09:51:32;;;;;;;3.00;2.10;;;;;;;26.36;41.08;99037.50;238525;1192;138884;-59
2022/07/25 09:56:35;;;;;;;3.50;2.00;;;;;;;26.46;40.98;99034.77;238474;1192;138392;-59
2022/07/25 10:01:50;;;;;;;4.70;2.30;;;;;;;26.61;40.67;99032.20;238616;1192;138621;-59
2022/07/25 10:07:08;;;;;;;3.70;1.70;;;;;;;26.74;40.30;99025.86;238823;1190;139571;-58
2022/07/25 10:12:17;;;;;;;3.40;2.70;;;;;;;26.93;40.00;99015.52;238807;1190;138965;-59
2022/07/25 10:17:20;;;;;;;5.80;2.50;;;;;;;27.12;39.49;99011.40;238858;1191;139012;-59
2022/07/25 10:22:44;;;;;;;7.90;2.40;;;;;;;27.29;39.25;99013.14;238734;1191;139572;-59
2022/07/25 10:28:08;;;;;;;4.40;1.90;;;;;;;27.47;39.04;99005.29;238832;1191;139613;-60
2022/07/25 10:33:17;;;;;;;4.60;1.90;;;;;;;27.68;38.79;99007.50;238857;1191;139859;-59
2022/07/25 10:38:27;;;;;;;5.20;1.50;;;;;;;27.89;38.73;98999.14;238622;1191;139576;-59
2022/07/25 10:43:36;;;;;;;4.50;1.80;;;;;;;28.09;38.25;98991.75;238657;1192;139359;-60
2022/07/25 10:48:40;;;;;;;4.30;1.80;;;;;;;28.21;37.62;98983.67;238730;1191;139502;-60
2022/07/25 10:53:48;;;;;;;5.50;2.10;;;;;;;28.34;37.13;98980.26;238748;1190;139259;-61
2022/07/25 10:58:51;;;;;;;8.50;1.80;;;;;;;28.46;36.75;98974.20;238831;1192;139239;-60
2022/07/25 11:03:57;;;;;;;1.80;1.20;;;;;;;28.65;36.33;98970.31;238753;1191;138942;-60
2022/07/25 11:09:01;;;;;;;5.10;2.00;;;;;;;28.85;36.22;98961.77;238517;1191;139624;-60
2022/07/25 11:14:05;;;;;;;4.90;1.60;;;;;;;29.01;36.03;98958.94;238299;1191;140264;-59
2022/07/25 11:19:21;;;;;;;2.60;1.60;;;;;;;29.18;36.19;98951.21;238837;1191;139416;-60
2022/07/25 11:24:34;;;;;;;1.90;1.40;;;;;;;29.38;35.99;98940.30;238757;1192;138803;-60
2022/07/25 11:29:38;;;;;;;4.40;1.60;;;;;;;29.54;35.48;98935.16;238564;1192;140516;-61
2022/07/25 11:34:45;;;;;;;3.20;1.20;;;;;;;29.69;35.30;98925.22;238826;1191;138731;-60
2022/07/25 11:39:48;;;;;;;3.30;1.30;;;;;;;29.82;34.65;98919.17;238868;1192;139686;-60
2022/07/25 11:44:53;;;;;;;3.30;1.40;;;;;;;29.91;34.33;98912.46;238631;1192;139863;-61
2022/07/25 11:50:02;;;;;;;1.70;1.20;;;;;;;30.00;33.64;98910.20;238786;1191;138433;-61
2022/07/25 11:55:10;;;;;;;3.50;1.20;;;;;;;30.11;33.33;98903.10;238818;1190;139609;-60
2022/07/25 12:00:16;;;;;;;2.50;1.30;;;;;;;30.30;33.36;98896.98;238689;1190;139726;-60
2022/07/25 12:05:21;;;;;;;4.60;1.30;;;;;;;30.56;33.31;98887.14;238869;1190;141447;-61
2022/07/25 12:10:33;;;;;;;6.00;1.30;;;;;;;30.68;32.91;98879.14;238698;1192;139058;-61
2022/07/25 12:15:40;;;;;;;1.90;1.30;;;;;;;30.83;32.96;98875.05;238829;1192;139135;-60
2022/07/25 12:20:43;;;;;;;3.70;1.50;;;;;;;31.03;32.93;98865.95;238765;1192;138546;-62
2022/07/25 12:25:46;;;;;;;3.20;1.20;;;;;;;31.25;32.89;98861.14;238467;1192;138928;-60
2022/07/25 12:30:49;;;;;;;2.50;1.30;;;;;;;31.46;32.48;98853.67;238484;1192;139094;-61
2022/07/25 12:35:59;;;;;;;2.10;1.30;;;;;;;31.65;32.30;98847.30;238811;1192;138695;-60
2022/07/25 12:41:08;;;;;;;3.80;1.30;;;;;;;31.72;31.84;98838.00;238901;1192;139771;-61
2022/07/25 12:46:15;;;;;;;6.50;1.50;;;;;;;31.87;31.81;98832.98;238638;1192;139143;-60
2022/07/25 12:51:19;;;;;;;4.10;1.50;;;;;;;32.04;31.35;98829.06;238702;1192;141096;-61
2022/07/25 12:56:22;;;;;;;3.00;1.30;;;;;;;32.17;31.23;98821.33;238528;1191;138606;-61
2022/07/25 13:01:25;;;;;;;3.10;1.30;;;;;;;32.38;31.17;98820.59;238783;1193;138877;-61
2022/07/25 13:06:28;;;;;;;2.70;1.40;;;;;;;32.52;30.49;98814.94;238789;1192;138784;-61
2022/07/25 13:11:31;;;;;;;4.90;1.30;;;;;;;32.66;30.43;98812.48;238786;1191;138852;-61
2022/07/25 13:16:36;;;;;;;3.70;1.60;;;;;;;32.92;30.42;98803.97;238789;1191;138910;-62
2022/07/25 13:21:39;;;;;;;2.60;1.30;;;;;;;33.21;30.37;98797.20;238702;1192;139592;-61
2022/07/25 13:26:43;;;;;;;1.70;1.40;;;;;;;33.43;29.91;98781.31;238488;1192;139111;-59
2022/07/25 13:31:46;;;;;;;1.60;1.40;;;;;;;33.61;28.89;98777.71;238678;1192;138924;-59
2022/07/25 13:36:49;;;;;;;4.70;1.60;;;;;;;33.76;28.54;98772.36;238815;1190;236604;-59
2022/07/25 13:41:52;;;;;;;1.50;1.30;;;;;;;33.93;28.36;98763.69;238724;1192;138969;-59
2022/07/25 13:46:57;;;;;;;1.90;1.10;;;;;;;34.06;28.04;98758.55;238867;1191;138859;-61
2022/07/25 13:52:00;;;;;;;2.50;1.20;;;;;;;34.12;27.52;98755.37;238766;1192;138729;-61
2022/07/25 13:57:03;;;;;;;7.80;1.50;;;;;;;34.21;27.36;98750.34;238745;1192;141369;-61
2022/07/25 14:02:06;;;;;;;6.40;1.50;;;;;;;34.31;27.29;98745.39;238618;1192;138312;-61
2022/07/25 14:07:09;;;;;;;2.30;1.40;;;;;;;34.45;26.98;98738.94;238743;1192;138861;-60
2022/07/25 14:12:12;;;;;;;3.50;1.70;;;;;;;34.52;26.70;98733.96;238688;1191;138524;-61
2022/07/25 14:17:15;;;;;;;4.20;1.50;;;;;;;34.53;26.54;98727.56;238673;1192;139142;-59
2022/07/25 14:22:18;;;;;;;3.40;1.60;;;;;;;34.48;26.70;98723.55;238735;1190;139787;-58
2022/07/25 14:27:21;;;;;;;3.50;1.60;;;;;;;34.38;26.44;98717.52;238562;1192;138903;-59
2022/07/25 14:32:25;;;;;;;2.70;1.60;;;;;;;34.21;26.32;98713.99;238310;1192;139524;-59
2022/07/25 14:37:30;;;;;;;5.80;1.30;;;;;;;34.06;26.37;98708.60;238304;1193;138694;-59
2022/07/25 14:42:33;;;;;;;5.10;1.40;;;;;;;33.91;26.01;98702.79;238503;1191;139682;-59
2022/07/25 14:47:38;;;;;;;3.40;1.70;;;;;;;33.71;25.87;98691.41;238904;1192;139109;-57
2022/07/25 14:52:41;;;;;;;2.90;1.40;;;;;;;33.46;26.24;98683.85;238788;1192;138983;-59
2022/07/25 14:57:44;;;;;;;6.20;2.20;;;;;;;33.14;26.07;98682.73;238790;1192;139180;-59
2022/07/25 15:02:47;;;;;;;5.00;1.70;;;;;;;32.77;26.35;98675.42;238733;1191;139730;-58
2022/07/25 15:07:50;;;;;;;2.90;1.30;;;;;;;32.42;26.75;98666.45;238694;1191;139446;-59
2022/07/25 15:12:53;;;;;;;3.80;1.50;;;;;;;32.10;26.94;98662.88;238833;1190;139534;-58
2022/07/25 15:18:16;;;;;;;18.40;4.00;;;;;;;31.81;27.20;98658.54;238831;1192;139351;-60
2022/07/25 15:23:22;;;;;;;7.00;1.80;;;;;;;31.55;27.55;98651.81;238856;1192;139491;-57
2022/07/25 15:28:25;;;;;;;3.50;1.80;;;;;;;31.28;27.95;98647.31;238756;1190;138975;-59
2022/07/25 15:33:28;;;;;;;4.80;1.90;;;;;;;30.99;28.42;98646.82;238679;1192;139915;-59
2022/07/25 15:38:31;;;;;;;4.70;2.00;;;;;;;30.73;28.42;98645.50;238754;1192;140188;-60
2022/07/25 15:43:34;;;;;;;4.60;1.70;;;;;;;30.57;28.69;98644.55;238636;1191;139601;-59
2022/07/25 15:48:37;;;;;;;5.00;1.80;;;;;;;30.41;29.00;98635.94;238704;1192;138735;-60
2022/07/25 15:53:40;;;;;;;8.40;4.70;;;;;;;30.30;29.10;98629.49;238631;1192;138888;-59
2022/07/25 15:58:45;;;;;;;4.70;2.00;;;;;;;30.22;29.30;98624.51;238707;1192;139581;-59
2022/07/25 16:03:48;;;;;;;3.40;1.50;;;;;;;30.15;29.37;98620.61;238558;1192;138937;-59
2022/07/25 16:08:51;;;;;;;7.90;1.90;;;;;;;30.07;29.41;98613.80;238718;1190;138672;-59
2022/07/25 16:14:00;;;;;;;5.50;2.10;;;;;;;30.03;29.66;98610.72;238414;1192;139806;-59
2022/07/25 16:19:03;;;;;;;5.40;2.10;;;;;;;29.97;30.02;98604.63;238115;1193;140021;-58
2022/07/25 16:24:09;;;;;;;7.10;2.50;;;;;;;29.83;30.16;98604.34;238337;1192;140414;-59
2022/07/25 16:29:12;;;;;;;4.60;1.90;;;;;;;29.71;30.32;98600.58;238748;1192;139177;-59
2022/07/25 16:34:15;;;;;;;3.70;2.10;;;;;;;29.63;30.69;98602.31;238749;1192;138679;-59
2022/07/25 16:39:20;;;;;;;9.30;3.20;;;;;;;29.54;31.01;98602.52;238726;1192;139428;-59
2022/07/25 16:44:23;;;;;;;14.30;1.80;;;;;;;29.42;31.96;98597.38;238156;1191;138625;-58
2022/07/25 16:49:26;;;;;;;3.80;2.30;;;;;;;29.30;32.05;98596.23;238599;1192;139276;-56
2022/07/25 16:54:29;;;;;;;4.60;1.70;;;;;;;29.21;31.84;98596.66;238381;1192;138877;-58
2022/07/25 16:59:32;;;;;;;5.50;1.70;;;;;;;29.13;31.83;98591.09;238463;1192;138788;-58
2022/07/25 17:04:36;;;;;;;5.70;1.90;;;;;;;29.09;31.59;98592.62;238169;1192;139056;-59
2022/07/25 17:09:39;;;;;;;2.60;1.90;;;;;;;29.05;32.12;98592.27;238384;1192;138654;-59
2022/07/25 17:14:43;;;;;;;7.20;2.50;;;;;;;28.98;32.12;98589.61;238329;1192;138588;-60
2022/07/25 17:19:46;;;;;;;5.00;2.40;;;;;;;28.91;32.22;98585.29;238173;1192;138645;-60
2022/07/25 17:24:49;;;;;;;3.90;2.00;;;;;;;28.85;32.51;98582.19;238368;1192;138857;-60
2022/07/25 17:29:52;;;;;;;4.50;2.00;;;;;;;28.79;32.58;98581.09;238611;1192;139104;-59
2022/07/25 17:34:59;;;;;;;8.90;3.60;;;;;;;28.69;32.89;98576.41;238608;1192;138661;-59
2022/07/25 17:40:05;;;;;;;5.50;2.20;;;;;;;28.59;33.25;98575.95;238447;1192;138867;-60
2022/07/25 17:45:09;;;;;;;5.30;2.30;;;;;;;28.47;33.37;98573.97;238424;1192;139024;-59
2022/07/25 17:50:13;;;;;;;6.10;2.40;;;;;;;28.35;33.60;98573.23;238315;1192;140572;-59
2022/07/25 17:55:16;;;;;;;4.00;2.20;;;;;;;28.23;33.87;98567.41;238471;1191;138909;-59
2022/07/25 18:00:21;;;;;;;3.40;2.00;;;;;;;28.12;34.23;98559.86;238339;1192;139027;-58
2022/07/25 18:05:24;;;;;;;3.00;2.10;;;;;;;28.03;34.34;98557.55;238530;1190;138638;-59
2022/07/25 18:10:27;;;;;;;3.90;2.00;;;;;;;28.00;34.46;98560.26;238737;1191;138594;-59
2022/07/25 18:15:30;;;;;;;3.80;2.10;;;;;;;27.94;34.52;98563.20;238437;1192;139267;-59
2022/07/25 18:20:33;;;;;;;3.60;2.30;;;;;;;27.85;34.72;98559.84;238351;1192;139316;-56
2022/07/25 18:25:36;;;;;;;7.20;2.20;;;;;;;27.76;34.82;98554.61;238028;1192;139334;-57
2022/07/25 18:30:39;;;;;;;7.10;2.20;;;;;;;27.67;34.90;98554.59;238540;1191;140372;-56
2022/07/25 18:35:42;;;;;;;4.20;2.10;;;;;;;27.58;34.99;98552.73;238702;1192;139148;-59
2022/07/25 18:40:45;;;;;;;3.60;2.30;;;;;;;27.50;35.00;98550.59;238652;1191;138696;-60
2022/07/25 18:45:49;;;;;;;5.80;2.40;;;;;;;27.40;35.13;98549.58;238692;1191;138271;-58
2022/07/25 18:50:53;;;;;;;5.60;2.40;;;;;;;27.27;35.34;98544.56;238664;1192;139062;-59
2022/07/25 18:55:55;;;;;;;5.60;2.30;;;;;;;27.15;35.43;98539.46;238773;1191;138567;-60
2022/07/25 19:00:58;;;;;;;4.00;2.50;;;;;;;27.03;35.66;98543.04;238727;1191;138656;-60
2022/07/25 19:06:02;;;;;;;7.00;2.20;;;;;;;26.91;36.18;98540.53;238472;1192;138713;-59
2022/07/25 19:11:07;;;;;;;;;;;;;;;26.77;36.53;98538.75;238476;1192;139242;-60
2022/07/25 19:16:10;;;;;;;6.20;2.40;;;;;;;26.58;36.74;98541.44;238324;1192;125113;-60
2022/07/25 19:21:14;;;;;;;3.60;2.50;;;;;;;26.43;37.12;98538.44;238569;1192;139109;-60
2022/07/25 19:26:18;;;;;;;6.70;2.40;;;;;;;26.31;37.58;98539.30;238268;1192;138997;-59
2022/07/25 19:31:21;;;;;;;6.20;2.40;;;;;;;26.20;37.73;98536.83;238754;1191;138981;-60
2022/07/25 19:36:24;;;;;;;6.20;3.10;;;;;;;26.08;37.84;98529.50;238583;1191;138449;-59
2022/07/25 19:41:29;;;;;;;6.60;2.30;;;;;;;25.98;38.12;98531.84;238567;1192;138969;-59
2022/07/25 19:46:32;;;;;;;3.70;2.70;;;;;;;25.88;38.26;98527.86;238577;1192;138500;-59
2022/07/25 19:51:36;;;;;;;7.30;2.90;;;;;;;25.79;38.68;98523.66;238418;1192;139179;-58
2022/07/25 19:56:39;;;;;;;8.20;3.10;;;;;;;25.69;38.67;98521.65;238613;1191;138663;-59
2022/07/25 20:01:42;;;;;;;7.50;3.20;;;;;;;25.60;38.81;98520.91;238716;1191;139244;-59
2022/07/25 20:06:45;;;;;;;8.40;2.50;;;;;;;25.49;38.98;98516.89;238772;1190;138977;-60
2022/07/25 20:11:48;;;;;;;6.80;2.70;;;;;;;25.41;39.12;98512.00;238864;1190;138634;-57
2022/07/25 20:16:51;;;;;;;5.80;2.90;;;;;;;25.34;39.45;98505.46;238651;1191;139427;-57
2022/07/25 20:21:55;;;;;;;5.80;2.90;;;;;;;25.24;39.53;98504.16;238705;1191;139000;-59
2022/07/25 20:26:59;;;;;;;9.60;2.90;;;;;;;25.17;39.53;98501.08;238634;1191;139216;-58
2022/07/25 20:32:02;;;;;;;7.60;2.70;;;;;;;25.11;39.84;98498.39;238681;1192;140046;-60
2022/07/25 20:37:05;;;;;;;7.70;3.20;;;;;;;25.05;39.93;98498.46;238556;1192;139204;-60
2022/07/25 20:42:08;;;;;;;6.50;3.40;;;;;;;24.99;40.16;98499.70;238632;1191;138645;-60
2022/07/25 20:47:13;;;;;;;6.10;3.40;;;;;;;24.91;40.28;98501.86;237939;1192;139517;-59
2022/07/25 20:52:17;;;;;;;8.50;3.10;;;;;;;24.81;40.46;98501.38;238809;1191;139336;-59
2022/07/25 20:57:21;;;;;;;7.60;3.00;;;;;;;24.72;40.66;98498.42;238796;1191;139617;-60
2022/07/25 21:02:24;;;;;;;8.70;3.20;;;;;;;24.65;40.73;98495.38;238622;1191;139315;-58
2022/07/25 21:07:27;;;;;;;10.00;3.10;;;;;;;24.59;40.81;98498.13;238729;1190;140039;-59
2022/07/25 21:12:30;;;;;;;6.10;3.10;;;;;;;24.53;40.97;98496.03;238773;1190;139576;-60
2022/07/25 21:17:34;;;;;;;4.60;2.90;;;;;;;24.47;41.09;98502.77;238808;1191;139803;-60
2022/07/25 21:22:39;;;;;;;6.40;2.80;;;;;;;24.42;41.22;98499.63;238842;1191;141165;-59
2022/07/25 21:27:42;;;;;;;7.70;2.50;;;;;;;24.38;41.25;98495.55;238750;1191;139259;-60
2022/07/25 21:32:45;;;;;;;8.00;2.60;;;;;;;24.35;41.44;98498.63;238613;1192;139281;-60
2022/07/25 21:37:48;;;;;;;7.80;3.00;;;;;;;24.30;41.58;98494.69;238598;1192;138991;-59
2022/07/25 21:42:51;;;;;;;6.20;2.90;;;;;;;24.26;41.67;98501.56;238809;1192;138534;-59
2022/07/25 21:47:54;;;;;;;8.70;3.20;;;;;;;24.21;41.77;98503.16;238956;1191;139096;-58
2022/07/25 21:53:00;;;;;;;8.90;3.50;;;;;;;24.16;41.91;98502.39;238808;1191;139846;-58
2022/07/25 21:58:04;;;;;;;7.40;3.90;;;;;;;24.09;42.08;98504.16;238780;1190;138782;-60
2022/07/25 22:03:07;;;;;;;6.50;3.80;;;;;;;24.02;42.15;98502.81;238672;1191;139337;-59
2022/07/25 22:08:09;;;;;;;7.70;3.20;;;;;;;23.95;42.28;98500.86;238775;1192;140016;-59
2022/07/25 22:13:12;;;;;;;5.80;2.80;;;;;;;23.88;42.52;98501.58;238800;1192;138905;-58
2022/07/25 22:18:15;;;;;;;7.90;3.00;;;;;;;23.81;42.54;98492.43;238724;1191;140237;-59
2022/07/25 22:23:18;;;;;;;5.80;2.80;;;;;;;23.73;42.79;98487.02;238205;1192;138841;-59
2022/07/25 22:28:21;;;;;;;5.60;2.90;;;;;;;23.64;42.96;98479.19;238083;1192;138470;-60
2022/07/25 22:33:27;;;;;;;4.90;2.70;;;;;;;23.54;43.32;98477.73;238638;1191;139862;-58
2022/07/25 22:38:30;;;;;;;10.30;3.00;;;;;;;23.46;43.49;98475.31;238595;1191;140165;-59
2022/07/25 22:43:33;;;;;;;3.90;2.60;;;;;;;23.37;43.53;98469.86;238464;1192;138894;-58
2022/07/25 22:48:57;;;;;;;5.40;3.00;;;;;;;23.28;43.83;98453.76;238579;1191;139818;-59
2022/07/25 22:54:01;;;;;;;7.70;2.90;;;;;;;23.21;44.09;98449.98;238699;1191;139325;-59
2022/07/25 22:59:04;;;;;;;4.30;2.80;;;;;;;23.13;44.29;98438.81;238846;1191;139338;-60
2022/07/25 23:04:08;;;;;;;5.30;3.00;;;;;;;23.06;44.45;98435.22;238655;1191;139818;-58
2022/07/25 23:09:12;;;;;;;8.00;3.50;;;;;;;22.99;44.76;98427.08;238581;1192;139320;-57
2022/07/25 23:14:15;;;;;;;8.50;3.50;;;;;;;22.91;44.80;98420.02;238713;1190;139135;-58
2022/07/25 23:19:18;;;;;;;7.10;3.90;;;;;;;22.83;44.98;98421.88;238785;1191;138964;-58
2022/07/25 23:24:24;;;;;;;6.00;3.30;;;;;;;22.77;45.08;98412.48;238781;1191;139746;-58